createdAt,value
2022-09-11T00:01:31.654Z,46.55
2022-09-11T00:03:59.331Z,50.85
2022-09-11T00:06:30.191Z,46.22
2022-09-11T00:09:00.697Z,52.63
2022-09-11T00:11:31.327Z,51.63
2022-09-11T00:13:59.301Z,45.92
2022-09-11T00:16:29.533Z,49.90
2022-09-11T00:18:59.915Z,42.08
2022-09-11T00:21:29.395Z,39.95
2022-09-11T00:23:58.000Z,44.90
2022-09-11T00:26:26.297Z,35.75
2022-09-11T00:28:55.326Z,38.17
2022-09-11T00:31:25.376Z,43.10
2022-09-11T00:33:53.959Z,39.83
2022-09-11T00:36:24.444Z,49.42
2022-09-11T00:38:52.723Z,38.78
2022-09-11T00:41:24.115Z,41.05
2022-09-11T00:43:56.891Z,45.22
2022-09-11T00:46:31.341Z,34.38
2022-09-11T00:49:01.422Z,43.28
2022-09-11T00:51:34.538Z,43.65
2022-09-11T00:54:04.527Z,41.33
2022-09-11T00:56:36.850Z,36.55
2022-09-11T00:59:07.176Z,39.30
2022-09-11T01:01:35.247Z,35.05
2022-09-11T01:04:05.548Z,36.33
2022-09-11T01:06:33.804Z,44.40
2022-09-11T01:09:01.329Z,32.70
2022-09-11T01:11:45.969Z,39.10
2022-09-11T01:14:32.429Z,36.97
2022-09-11T01:17:12.702Z,35.78
2022-09-11T01:19:57.979Z,44.13
2022-09-11T01:22:45.689Z,39.58
2022-09-11T01:25:27.414Z,39.85
2022-09-11T01:27:58.491Z,37.83
2022-09-11T01:30:29.778Z,37.33
2022-09-11T01:33:06.463Z,37.05
2022-09-11T01:35:43.010Z,48.83
2022-09-11T01:38:18.020Z,36.38
2022-09-11T01:40:52.938Z,39.00
2022-09-11T01:43:27.001Z,41.83
2022-09-11T01:45:58.785Z,43.17
2022-09-11T01:48:30.018Z,41.25
2022-09-11T01:51:00.981Z,48.60
2022-09-11T01:53:34.526Z,45.30
2022-09-11T01:56:06.655Z,43.22
2022-09-11T01:58:39.232Z,45.17
2022-09-11T02:01:13.320Z,50.38
2022-09-11T02:03:45.201Z,44.47
2022-09-11T02:06:18.705Z,46.15
2022-09-11T02:08:52.261Z,46.42
2022-09-11T02:11:23.590Z,64.75
2022-09-11T02:13:57.259Z,51.00
2022-09-11T02:16:36.009Z,49.58
2022-09-11T02:19:06.741Z,55.20
2022-09-11T02:21:35.711Z,47.85
2022-09-11T02:24:03.823Z,49.55
2022-09-11T02:26:34.735Z,44.88
2022-09-11T02:29:04.188Z,36.42
2022-09-11T02:31:34.934Z,48.58
2022-09-11T02:34:02.767Z,43.33
2022-09-11T02:36:45.077Z,48.92
2022-09-11T02:39:39.201Z,46.08
2022-09-11T02:42:28.788Z,46.97
2022-09-11T02:45:06.660Z,39.35
2022-09-11T02:47:45.950Z,48.20
2022-09-11T02:50:29.169Z,46.50
2022-09-11T02:53:02.462Z,45.63
2022-09-11T02:55:38.575Z,47.25
2022-09-11T02:58:13.093Z,47.28
2022-09-11T03:00:42.427Z,52.80
2022-09-11T03:03:10.061Z,46.05
2022-09-11T03:05:40.271Z,46.22
2022-09-11T03:08:08.495Z,39.17
2022-09-11T03:10:38.493Z,50.03
2022-09-11T03:13:09.513Z,44.22
2022-09-11T03:15:37.257Z,42.38
2022-09-11T03:18:06.508Z,41.90
2022-09-11T03:20:34.153Z,40.50
2022-09-11T03:23:01.754Z,44.08
2022-09-11T03:25:29.911Z,37.80
2022-09-11T03:28:00.477Z,41.35
2022-09-11T03:30:28.197Z,45.40
2022-09-11T03:32:56.290Z,39.67
2022-09-11T03:35:25.305Z,42.22
2022-09-11T03:37:52.967Z,39.38
2022-09-11T03:40:21.109Z,43.97
2022-09-11T03:42:48.867Z,40.42
2022-09-11T03:45:18.043Z,40.83
2022-09-11T03:47:45.554Z,35.08
2022-09-11T03:50:13.618Z,39.38
2022-09-11T03:52:43.372Z,36.08
2022-09-11T03:55:12.283Z,29.63
2022-09-11T03:57:40.466Z,34.45
2022-09-11T04:00:10.049Z,30.90
2022-09-11T04:02:49.673Z,35.30
2022-09-11T04:05:30.310Z,30.98
2022-09-11T04:08:02.140Z,28.30
2022-09-11T04:10:30.102Z,32.92
2022-09-11T04:12:59.303Z,27.55
2022-09-11T04:15:27.830Z,30.25
2022-09-11T04:17:56.660Z,29.02
2022-09-11T04:20:24.266Z,30.50
2022-09-11T04:22:52.495Z,23.30
2022-09-11T04:25:22.203Z,26.33
2022-09-11T04:27:50.292Z,29.65
2022-09-11T04:30:18.380Z,31.35
2022-09-11T04:32:46.185Z,28.10
2022-09-11T04:35:14.219Z,30.33
2022-09-11T04:37:49.829Z,31.00
2022-09-11T04:40:17.821Z,29.00
2022-09-11T04:42:47.624Z,29.08
2022-09-11T04:45:15.204Z,31.45
2022-09-11T04:47:43.451Z,26.45
2022-09-11T04:50:13.433Z,27.63
2022-09-11T04:52:45.247Z,25.73
2022-09-11T04:55:13.007Z,28.02
2022-09-11T04:57:40.557Z,30.75
2022-09-11T05:00:11.953Z,28.60
2022-09-11T05:02:40.516Z,27.45
2022-09-11T05:05:09.885Z,26.42
2022-09-11T05:07:38.416Z,22.27
2022-09-11T05:10:07.595Z,22.23
2022-09-11T05:12:35.539Z,25.50
2022-09-11T05:15:04.198Z,21.08
2022-09-11T05:17:34.283Z,27.33
2022-09-11T05:20:06.654Z,28.80
2022-09-11T05:22:37.599Z,23.77
2022-09-11T05:25:05.846Z,23.23
2022-09-11T05:27:33.430Z,25.85
2022-09-11T05:30:02.282Z,26.52
2022-09-11T05:32:30.091Z,30.23
2022-09-11T05:34:59.458Z,29.00
2022-09-11T05:37:26.971Z,25.98
2022-09-11T05:39:54.609Z,24.30
2022-09-11T05:42:24.689Z,26.15
2022-09-11T05:44:55.361Z,22.25
2022-09-11T05:47:25.316Z,23.00
2022-09-11T05:49:56.418Z,20.75
2022-09-11T05:52:25.684Z,19.83
2022-09-11T05:54:53.590Z,21.40
2022-09-11T05:57:21.390Z,21.27
2022-09-11T05:59:49.416Z,15.63
2022-09-11T06:02:18.733Z,19.35
2022-09-11T06:04:52.113Z,19.50
2022-09-11T06:07:22.097Z,15.90
2022-09-11T06:09:52.540Z,18.25
2022-09-11T06:12:20.948Z,15.30
2022-09-11T06:14:49.712Z,14.27
2022-09-11T06:17:17.583Z,14.18
2022-09-11T06:19:45.623Z,14.68
2022-09-11T06:22:13.271Z,15.95
2022-09-11T06:24:43.713Z,12.27
2022-09-11T06:27:12.930Z,12.35
2022-09-11T06:29:45.102Z,12.18
2022-09-11T06:32:13.484Z,9.57
2022-09-11T06:34:41.573Z,8.43
2022-09-11T06:37:12.469Z,10.40
2022-09-11T06:39:40.271Z,8.80
2022-09-11T06:42:10.602Z,9.60
2022-09-11T06:44:42.017Z,8.63
2022-09-11T06:47:12.745Z,9.52
2022-09-11T06:49:40.491Z,9.30
2022-09-11T06:52:34.489Z,9.68
2022-09-11T06:55:13.341Z,27.88
2022-09-11T06:57:42.866Z,9.88
2022-09-11T07:00:17.121Z,8.82
2022-09-11T07:02:45.212Z,7.75
2022-09-11T07:05:14.560Z,16.17
2022-09-11T07:07:46.252Z,8.75
2022-09-11T07:10:14.476Z,17.58
2022-09-11T07:12:42.859Z,16.83
2022-09-11T07:15:12.345Z,19.92
2022-09-11T07:17:41.316Z,14.57
2022-09-11T07:20:11.500Z,8.63
2022-09-11T07:22:40.476Z,11.18
2022-09-11T07:25:08.686Z,7.93
2022-09-11T07:27:39.846Z,22.83
2022-09-11T07:30:08.842Z,16.63
2022-09-11T07:32:41.131Z,25.02
2022-09-11T07:35:09.207Z,7.47
2022-09-11T07:37:36.877Z,7.03
2022-09-11T07:40:04.858Z,6.95
2022-09-11T07:42:34.084Z,6.45
2022-09-11T07:45:01.889Z,7.15
2022-09-11T07:47:33.792Z,6.68
2022-09-11T07:50:04.942Z,10.13
2022-09-11T07:52:33.589Z,9.00
2022-09-11T07:55:03.873Z,7.22
2022-09-11T07:57:34.579Z,9.07
2022-09-11T08:00:06.730Z,7.03
2022-09-11T08:02:48.108Z,8.85
2022-09-11T08:05:20.886Z,7.47
2022-09-11T08:07:49.038Z,6.35
2022-09-11T08:10:27.236Z,6.25
2022-09-11T08:12:59.911Z,7.38
2022-09-11T08:15:31.907Z,5.47
2022-09-11T08:18:00.836Z,5.97
2022-09-11T08:20:31.929Z,10.85
2022-09-11T08:23:00.179Z,13.65
2022-09-11T08:25:28.576Z,8.82
2022-09-11T08:27:57.208Z,6.85
2022-09-11T08:30:25.342Z,6.40
2022-09-11T08:32:52.997Z,6.80
2022-09-11T08:35:21.600Z,5.07
2022-09-11T08:37:54.720Z,5.40
2022-09-11T08:40:23.209Z,12.00
2022-09-11T08:42:52.268Z,4.72
2022-09-11T08:45:22.536Z,6.13
2022-09-11T08:47:55.148Z,5.57
2022-09-11T08:50:26.049Z,4.97
2022-09-11T08:52:56.618Z,8.30
2022-09-11T08:55:34.348Z,4.88
2022-09-11T08:58:12.187Z,5.80
2022-09-11T09:00:43.936Z,6.32
2022-09-11T09:03:41.662Z,4.53
2022-09-11T09:06:30.485Z,4.50
2022-09-11T09:09:09.233Z,4.50
2022-09-11T09:11:43.232Z,4.15
2022-09-11T09:14:33.608Z,5.28
2022-09-11T09:17:06.074Z,3.80
2022-09-11T09:19:42.290Z,3.40
2022-09-11T09:22:16.287Z,4.63
2022-09-11T09:24:49.965Z,4.00
2022-09-11T09:27:21.357Z,4.55
2022-09-11T09:29:54.740Z,4.13
2022-09-11T09:32:29.145Z,2.60
2022-09-11T09:35:01.876Z,2.72
2022-09-11T09:37:33.091Z,4.47
2022-09-11T09:40:06.339Z,3.65
2022-09-11T09:43:02.253Z,3.60
2022-09-11T09:45:40.128Z,3.05
2022-09-11T09:48:10.789Z,3.58
2022-09-11T09:50:43.096Z,2.55
2022-09-11T09:53:18.512Z,3.08
2022-09-11T09:55:48.097Z,3.28
2022-09-11T09:58:15.928Z,4.82
2022-09-11T10:00:44.267Z,3.15
2022-09-11T10:03:29.622Z,2.58
2022-09-11T10:05:57.991Z,3.50
2022-09-11T10:08:29.153Z,4.00
2022-09-11T10:10:59.552Z,2.20
2022-09-11T10:13:32.628Z,1.80
2022-09-11T10:16:03.633Z,2.85
2022-09-11T10:18:42.664Z,3.67
2022-09-11T10:21:29.834Z,2.45
2022-09-11T10:24:02.886Z,2.40
2022-09-11T10:26:35.029Z,2.83
2022-09-11T10:29:09.878Z,3.13
2022-09-11T10:31:41.037Z,2.35
2022-09-11T10:34:17.186Z,3.33
2022-09-11T10:36:53.769Z,2.25
2022-09-11T10:39:22.747Z,2.60
2022-09-11T10:41:56.537Z,2.50
2022-09-11T10:44:24.704Z,2.17
2022-09-11T10:47:06.300Z,1.95
2022-09-11T10:49:34.967Z,2.50
2022-09-11T10:52:19.270Z,2.20
2022-09-11T10:54:59.977Z,2.13
2022-09-11T10:57:33.554Z,1.77
2022-09-11T11:00:06.692Z,2.58
2022-09-11T11:02:36.963Z,3.17
2022-09-11T11:05:11.165Z,2.17
2022-09-11T11:07:53.185Z,1.52
2022-09-11T11:10:46.897Z,2.35
2022-09-11T11:13:31.922Z,1.25
2022-09-11T11:16:13.873Z,1.30
2022-09-11T11:18:59.982Z,1.38
2022-09-11T11:21:48.752Z,2.20
2022-09-11T11:24:32.181Z,1.33
2022-09-11T11:27:11.084Z,1.65
2022-09-11T11:30:02.530Z,1.13
2022-09-11T11:32:53.224Z,1.30
2022-09-11T11:35:23.862Z,1.40
2022-09-11T11:38:00.670Z,1.40
2022-09-11T11:40:37.695Z,1.80
2022-09-11T11:43:08.701Z,1.20
2022-09-11T11:45:43.104Z,1.70
2022-09-11T11:48:20.293Z,1.60
2022-09-11T11:50:51.486Z,2.53
2022-09-11T11:53:24.363Z,2.25
2022-09-11T11:56:04.324Z,1.55
2022-09-11T11:58:51.309Z,1.50
2022-09-11T12:01:25.135Z,1.55
2022-09-11T12:04:00.606Z,1.88
2022-09-11T12:06:29.153Z,2.58
2022-09-11T12:08:58.201Z,1.77
2022-09-11T12:11:31.231Z,2.15
2022-09-11T12:14:00.045Z,1.42
2022-09-11T12:16:33.932Z,2.28
2022-09-11T12:19:15.144Z,1.60
2022-09-11T12:22:05.413Z,1.65
2022-09-11T12:24:54.429Z,1.55
2022-09-11T12:27:53.705Z,1.50
2022-09-11T12:30:24.319Z,1.55
2022-09-11T12:32:54.915Z,1.75
2022-09-11T12:35:27.658Z,1.40
2022-09-11T12:38:00.884Z,1.40
2022-09-11T12:40:34.013Z,1.60
2022-09-11T12:43:26.238Z,2.67
2022-09-11T12:45:54.084Z,2.03
2022-09-11T12:48:25.915Z,1.45
2022-09-11T12:50:56.302Z,1.52
2022-09-11T12:53:27.303Z,2.17
2022-09-11T12:55:59.703Z,1.70
2022-09-11T12:58:31.947Z,1.65
2022-09-11T13:01:08.416Z,1.10
2022-09-11T13:03:38.592Z,1.92
2022-09-11T13:06:09.246Z,1.38
2022-09-11T13:08:41.571Z,2.80
2022-09-11T13:11:38.766Z,1.42
2022-09-11T13:14:48.896Z,1.95
2022-09-11T13:17:30.591Z,1.25
2022-09-11T13:20:21.491Z,0.85
2022-09-11T13:22:58.141Z,1.60
2022-09-11T13:25:27.800Z,2.58
2022-09-11T13:27:57.840Z,3.67
2022-09-11T13:30:26.787Z,1.27
2022-09-11T13:33:05.881Z,2.08
2022-09-11T13:35:35.810Z,1.20
2022-09-11T13:38:31.245Z,2.13
2022-09-11T13:40:59.441Z,1.35
2022-09-11T13:43:31.644Z,0.90
2022-09-11T13:46:23.048Z,2.92
2022-09-11T13:48:58.794Z,1.77
2022-09-11T13:51:31.155Z,1.20
2022-09-11T13:54:09.015Z,2.50
2022-09-11T13:56:46.978Z,7.13
2022-09-11T13:59:38.415Z,2.10
2022-09-11T14:02:17.686Z,1.88
2022-09-11T14:04:46.266Z,1.17
2022-09-11T14:07:23.410Z,1.83
2022-09-11T14:09:59.882Z,5.40
2022-09-11T14:12:28.844Z,1.10
2022-09-11T14:14:59.697Z,1.23
2022-09-11T14:17:27.664Z,2.08
2022-09-11T14:20:00.858Z,1.30
2022-09-11T14:22:32.470Z,1.15
2022-09-11T14:25:06.105Z,1.10
2022-09-11T14:27:38.879Z,1.30
2022-09-11T14:30:36.873Z,1.90
2022-09-11T14:33:26.469Z,2.05
2022-09-11T14:36:06.995Z,1.20
2022-09-11T14:38:38.945Z,1.83
2022-09-11T14:41:08.064Z,1.35
2022-09-11T14:43:44.093Z,3.38
2022-09-11T14:46:14.373Z,6.55
2022-09-11T14:48:43.091Z,2.97
2022-09-11T14:51:13.741Z,1.25
2022-09-11T14:53:44.018Z,7.72
2022-09-11T14:56:14.586Z,2.15
2022-09-11T14:58:47.191Z,1.17
2022-09-11T15:01:16.914Z,1.30
2022-09-11T15:03:47.486Z,1.50
2022-09-11T15:06:20.613Z,1.40
2022-09-11T15:08:49.822Z,2.53
2022-09-11T15:11:18.076Z,0.73
2022-09-11T15:14:10.879Z,1.48
2022-09-11T15:16:34.329Z,1.98
2022-09-11T15:19:02.412Z,2.42
2022-09-11T15:21:34.091Z,1.27
2022-09-11T15:24:11.630Z,7.22
2022-09-11T15:26:39.286Z,2.03
2022-09-11T15:29:10.008Z,0.90
2022-09-11T15:31:40.753Z,1.85
2022-09-11T15:34:12.625Z,2.38
2022-09-11T15:36:41.424Z,2.38
2022-09-11T15:39:14.818Z,0.93
2022-09-11T15:41:43.183Z,0.88
2022-09-11T15:44:12.044Z,1.95
2022-09-11T15:46:40.034Z,1.10
2022-09-11T15:49:10.506Z,1.75
2022-09-11T15:51:41.178Z,2.97
2022-09-11T15:54:11.027Z,1.63
2022-09-11T15:56:42.717Z,1.17
2022-09-11T15:59:12.407Z,0.85
2022-09-11T16:01:44.400Z,1.10
2022-09-11T16:04:16.589Z,1.40
2022-09-11T16:06:45.894Z,2.10
2022-09-11T16:09:17.078Z,2.10
2022-09-11T16:11:47.025Z,3.22
2022-09-11T16:14:22.003Z,2.58
2022-09-11T16:16:52.299Z,1.08
2022-09-11T16:19:22.461Z,2.05
2022-09-11T16:21:59.532Z,1.55
2022-09-11T16:24:37.628Z,1.40
2022-09-11T16:27:07.109Z,1.95
2022-09-11T16:30:09.088Z,1.27
2022-09-11T16:32:29.044Z,1.42
2022-09-11T16:34:57.335Z,1.13
2022-09-11T16:37:25.802Z,1.92
2022-09-11T16:39:54.803Z,1.30
2022-09-11T16:42:22.568Z,1.20
2022-09-11T16:44:50.606Z,1.27
2022-09-11T16:47:20.007Z,2.55
2022-09-11T16:50:06.356Z,1.83
2022-09-11T16:52:35.164Z,2.83
2022-09-11T16:55:04.604Z,1.25
2022-09-11T16:57:32.486Z,1.42
2022-09-11T17:00:00.297Z,2.40
2022-09-11T17:02:28.011Z,1.30
2022-09-11T17:04:55.761Z,1.20
2022-09-11T17:07:23.710Z,1.70
2022-09-11T17:09:51.335Z,1.55
2022-09-11T17:12:21.175Z,2.28
2022-09-11T17:14:49.362Z,2.03
2022-09-11T17:17:17.061Z,4.00
2022-09-11T17:19:44.622Z,2.38
2022-09-11T17:22:15.160Z,3.60
2022-09-11T17:24:42.738Z,2.75
2022-09-11T17:27:10.378Z,2.65
2022-09-11T17:29:44.271Z,2.78
2022-09-11T17:32:27.760Z,1.77
2022-09-11T17:34:56.220Z,1.58
2022-09-11T17:37:24.090Z,2.40
2022-09-11T17:39:51.836Z,2.08
2022-09-11T17:42:19.464Z,1.80
2022-09-11T17:44:48.278Z,1.48
2022-09-11T17:47:15.959Z,1.80
2022-09-11T17:49:43.930Z,2.38
2022-09-11T17:52:13.534Z,1.15
2022-09-11T17:54:41.142Z,1.50
2022-09-11T17:57:08.702Z,1.20
2022-09-11T17:59:36.643Z,2.33
2022-09-11T18:02:05.859Z,2.00
2022-09-11T18:04:34.494Z,1.38
2022-09-11T18:07:02.491Z,2.10
2022-09-11T18:09:34.765Z,2.00
2022-09-11T18:12:03.498Z,1.42
2022-09-11T18:14:31.690Z,1.40
2022-09-11T18:16:59.279Z,1.58
2022-09-11T18:19:28.236Z,1.63
2022-09-11T18:21:56.088Z,3.13
2022-09-11T18:24:24.334Z,1.60
2022-09-11T18:26:58.568Z,4.65
2022-09-11T18:29:30.052Z,1.98
2022-09-11T18:31:59.913Z,1.20
2022-09-11T18:34:31.116Z,2.53
2022-09-11T18:37:00.011Z,1.80
2022-09-11T18:39:27.946Z,2.45
2022-09-11T18:41:55.625Z,1.50
2022-09-11T18:44:25.202Z,1.60
2022-09-11T18:46:54.802Z,3.35
2022-09-11T18:49:22.930Z,2.88
2022-09-11T18:51:53.319Z,2.30
2022-09-11T18:54:21.986Z,2.42
2022-09-11T18:56:50.717Z,1.75
2022-09-11T18:59:19.317Z,2.40
2022-09-11T19:01:47.499Z,2.28
2022-09-11T19:04:16.359Z,1.40
2022-09-11T19:06:44.756Z,2.05
2022-09-11T19:09:14.686Z,3.70
2022-09-11T19:11:42.690Z,6.80
2022-09-11T19:14:11.734Z,4.18
2022-09-11T19:16:40.173Z,2.38
2022-09-11T19:19:08.696Z,1.75
2022-09-11T19:21:37.819Z,2.92
2022-09-11T19:24:06.554Z,2.63
2022-09-11T19:26:38.947Z,2.70
2022-09-11T19:29:08.519Z,3.55
2022-09-11T19:31:39.206Z,3.67
2022-09-11T19:34:08.058Z,2.97
2022-09-11T19:36:36.818Z,2.70
2022-09-11T19:39:05.844Z,2.20
2022-09-11T19:41:37.209Z,2.60
2022-09-11T19:44:07.372Z,2.35
2022-09-11T19:46:37.185Z,2.75
2022-09-11T19:49:06.657Z,2.38
2022-09-11T19:51:37.158Z,2.10
2022-09-11T19:54:05.997Z,2.67
2022-09-11T19:56:37.116Z,3.10
2022-09-11T19:59:05.306Z,2.28
2022-09-11T20:01:33.513Z,3.00
2022-09-11T20:04:01.742Z,2.33
2022-09-11T20:06:31.785Z,3.55
2022-09-11T20:09:26.884Z,2.92
2022-09-11T20:11:49.287Z,3.28
2022-09-11T20:14:16.898Z,3.50
2022-09-11T20:16:44.527Z,3.67
2022-09-11T20:19:12.130Z,3.95
2022-09-11T20:21:39.831Z,3.67
2022-09-11T20:24:07.746Z,3.10
2022-09-11T20:26:36.025Z,4.47
2022-09-11T20:29:07.784Z,3.50
2022-09-11T20:31:44.829Z,3.45
2022-09-11T20:34:14.925Z,2.95
2022-09-11T20:36:42.636Z,2.60
2022-09-11T20:39:12.319Z,4.05
2022-09-11T20:41:39.852Z,3.47
2022-09-11T20:44:09.185Z,3.80
2022-09-11T20:46:36.939Z,3.47
2022-09-11T20:49:05.867Z,3.67
2022-09-11T20:51:34.063Z,5.28
2022-09-11T20:54:01.682Z,4.03
2022-09-11T20:56:29.363Z,3.30
2022-09-11T20:58:57.477Z,4.32
2022-09-11T21:01:27.757Z,3.83
2022-09-11T21:03:57.258Z,4.25
2022-09-11T21:06:26.764Z,5.93
2022-09-11T21:08:55.916Z,6.00
2022-09-11T21:11:23.970Z,4.93
2022-09-11T21:13:51.936Z,6.43
2022-09-11T21:16:20.327Z,4.25
2022-09-11T21:18:51.117Z,4.07
2022-09-11T21:21:19.816Z,4.35
2022-09-11T21:23:47.487Z,5.25
2022-09-11T21:26:17.140Z,4.95
2022-09-11T21:28:44.815Z,5.07
2022-09-11T21:31:12.834Z,4.63
2022-09-11T21:33:40.987Z,6.20
2022-09-11T21:36:10.086Z,5.05
2022-09-11T21:38:38.211Z,5.72
2022-09-11T21:41:07.686Z,4.55
2022-09-11T21:43:36.261Z,4.45
2022-09-11T21:46:05.479Z,5.18
2022-09-11T21:48:35.755Z,4.70
2022-09-11T21:51:07.878Z,5.07
2022-09-11T21:53:36.945Z,5.57
2022-09-11T21:56:05.252Z,5.93
2022-09-11T21:58:33.244Z,4.53
2022-09-11T22:01:08.140Z,6.13
2022-09-11T22:03:36.002Z,6.57
2022-09-11T22:06:06.929Z,8.20
2022-09-11T22:08:35.365Z,5.65
2022-09-11T22:11:05.657Z,5.72
2022-09-11T22:13:35.269Z,5.30
2022-09-11T22:16:05.441Z,5.75
2022-09-11T22:18:33.314Z,6.10
2022-09-11T22:21:01.256Z,6.93
2022-09-11T22:23:30.313Z,7.65
2022-09-11T22:25:59.454Z,5.82
2022-09-11T22:28:28.822Z,6.38
2022-09-11T22:30:57.062Z,5.90
2022-09-11T22:33:25.336Z,6.38
2022-09-11T22:35:53.110Z,8.38
2022-09-11T22:38:20.830Z,8.45
2022-09-11T22:40:53.551Z,6.45
2022-09-11T22:43:21.559Z,6.13
2022-09-11T22:45:53.763Z,6.53
2022-09-11T22:48:21.434Z,6.45
2022-09-11T22:50:49.060Z,7.80
2022-09-11T22:53:16.780Z,6.85
2022-09-11T22:55:45.179Z,7.85
2022-09-11T22:58:16.402Z,6.15
2022-09-11T23:00:45.655Z,6.60
2022-09-11T23:03:14.953Z,5.28
2022-09-11T23:06:00.160Z,5.90
2022-09-11T23:08:28.770Z,6.18
2022-09-11T23:11:00.366Z,6.20
2022-09-11T23:13:29.878Z,6.00
2022-09-11T23:15:58.273Z,5.35
2022-09-11T23:18:28.713Z,6.95
2022-09-11T23:20:58.362Z,7.75
2022-09-11T23:23:26.986Z,7.30
2022-09-11T23:25:54.658Z,7.07
2022-09-11T23:28:22.266Z,5.88
2022-09-11T23:30:49.898Z,6.35
2022-09-11T23:33:17.446Z,7.40
2022-09-11T23:35:47.629Z,6.90
2022-09-11T23:38:15.307Z,8.30
2022-09-11T23:40:43.074Z,6.97
2022-09-11T23:43:10.721Z,5.88
2022-09-11T23:45:38.251Z,6.45
2022-09-11T23:48:08.611Z,6.18
2022-09-11T23:50:36.455Z,6.25
2022-09-11T23:53:05.457Z,6.57
2022-09-11T23:55:33.099Z,6.72
2022-09-11T23:58:01.709Z,8.15
